Time,TemperatureF,DewpointF,PressureIn,WindDirection,WindDirectionDegrees,WindSpeedMPH,WindSpeedGustMPH,Humidity,HourlyPrecipIn,Conditions,Clouds,dailyrainin,SoftwareType,DateUTC
2013-02-04 00:00:00,28.6,15.3,29.40,NW,315,9.4,14.3,57,0.00,,,0.00,WUHU216HW,2013-02-04 05:00:00,
2013-02-04 00:01:00,28.4,14.3,29.40,WNW,293,9.8,14.3,55,0.00,,,0.00,WUHU216HW,2013-02-04 05:01:00,
2013-02-04 00:02:00,28.4,14.3,29.40,NNW,338,9.6,12.8,55,0.00,,,0.00,WUHU216HW,2013-02-04 05:02:00,
2013-02-04 00:07:00,28.4,14.3,29.40,West,270,13.4,13.4,55,0.00,,,0.00,WUHU216HW,2013-02-04 05:07:00,
2013-02-04 00:12:00,28.4,13.9,29.40,WNW,293,4.9,13.4,54,0.00,,,0.00,WUHU216HW,2013-02-04 05:12:00,
2013-02-04 00:17:00,28.4,13.9,29.40,West,270,6.9,13.4,54,0.00,,,0.00,WUHU216HW,2013-02-04 05:17:00,
2013-02-04 00:22:00,28.3,14.1,29.40,North,0,2.2,12.1,55,0.00,,,0.00,WUHU216HW,2013-02-04 05:22:00,
2013-02-04 00:27:00,28.1,14.4,29.40,NW,315,2.0,12.1,56,0.00,,,0.00,WUHU216HW,2013-02-04 05:27:00,
2013-02-04 00:32:00,28.1,14.8,29.40,WSW,248,4.0,7.2,57,0.00,,,0.00,WUHU216HW,2013-02-04 05:32:00,
2013-02-04 00:37:00,28.1,15.2,29.40,NW,315,1.8,6.5,58,0.00,,,0.00,WUHU216HW,2013-02-04 05:37:00,
2013-02-04 00:42:00,27.7,15.2,29.40,NNE,23,0.4,5.6,59,0.00,,,0.00,WUHU216HW,2013-02-04 05:42:00,
2013-02-04 00:47:00,27.2,13.5,29.40,SW,225,2.5,2.5,56,0.00,,,0.00,WUHU216HW,2013-02-04 05:47:00,
2013-02-04 00:52:00,27.2,14.7,29.40,WNW,293,2.2,6.3,59,0.00,,,0.00,WUHU216HW,2013-02-04 05:52:00,
2013-02-04 00:57:00,27.0,14.1,29.40,East,90,0.4,6.3,58,0.00,,,0.00,WUHU216HW,2013-02-04 05:57:00,
2013-02-04 01:03:00,26.8,14.0,29.40,North,0,0.0,2.9,58,0.00,,,0.00,WUHU216HW,2013-02-04 06:03:00,
2013-02-04 01:07:00,26.8,14.0,29.40,North,0,0.7,2.9,58,0.00,,,0.00,WUHU216HW,2013-02-04 06:07:00,
2013-02-04 01:12:00,27.0,14.5,29.40,WSW,248,3.8,8.3,59,0.00,,,0.00,WUHU216HW,2013-02-04 06:12:00,
2013-02-04 01:18:00,27.0,14.9,29.40,NW,315,3.8,10.5,60,0.00,,,0.00,WUHU216HW,2013-02-04 06:18:00,
2013-02-04 01:23:00,27.0,14.5,29.40,West,270,3.1,10.5,59,0.00,,,0.00,WUHU216HW,2013-02-04 06:23:00,
2013-02-04 01:28:00,27.0,14.9,29.40,West,270,1.1,5.4,60,0.00,,,0.00,WUHU216HW,2013-02-04 06:28:00,
2013-02-04 01:33:00,27.0,15.3,29.40,West,270,1.8,3.1,61,0.00,,,0.00,WUHU216HW,2013-02-04 06:33:00,
2013-02-04 01:38:00,26.6,14.9,29.40,SSW,203,3.6,3.8,61,0.00,,,0.00,WUHU216HW,2013-02-04 06:38:00,
2013-02-04 01:42:00,26.5,15.1,29.40,WSW,248,0.2,4.0,62,0.00,,,0.00,WUHU216HW,2013-02-04 06:42:00,
2013-02-04 01:48:00,26.6,15.3,29.41,WSW,248,1.6,6.0,62,0.00,,,0.00,WUHU216HW,2013-02-04 06:48:00,
2013-02-04 01:53:00,26.6,15.3,29.41,SW,225,1.8,6.0,62,0.00,,,0.00,WUHU216HW,2013-02-04 06:53:00,
2013-02-04 01:58:00,26.6,15.3,29.41,WSW,248,3.4,4.5,62,0.00,,,0.00,WUHU216HW,2013-02-04 06:58:00,
2013-02-04 02:03:00,26.3,14.9,29.41,SSW,203,1.1,4.5,62,0.00,,,0.00,WUHU216HW,2013-02-04 07:03:00,
2013-02-04 02:08:00,26.1,14.8,29.41,West,270,5.8,5.8,62,0.00,,,0.00,WUHU216HW,2013-02-04 07:08:00,
2013-02-04 02:13:00,26.3,14.6,29.41,WNW,293,8.3,11.4,61,0.00,,,0.00,WUHU216HW,2013-02-04 07:13:00,
2013-02-04 02:18:00,26.6,15.3,29.41,WNW,293,2.0,11.4,62,0.00,,,0.00,WUHU216HW,2013-02-04 07:18:00,
2013-02-04 02:23:00,26.6,15.3,29.41,SW,225,2.0,8.3,62,0.00,,,0.00,WUHU216HW,2013-02-04 07:23:00,
2013-02-04 02:28:00,26.5,15.1,29.41,WSW,248,1.6,6.3,62,0.00,,,0.00,WUHU216HW,2013-02-04 07:28:00,
2013-02-04 02:33:00,26.3,14.9,29.41,SW,225,2.0,3.4,62,0.00,,,0.00,WUHU216HW,2013-02-04 07:33:00,
2013-02-04 02:38:00,26.1,14.8,29.41,SSW,203,2.9,4.0,62,0.00,,,0.00,WUHU216HW,2013-02-04 07:38:00,
2013-02-04 02:43:00,25.9,15.0,29.41,SSW,203,2.2,4.0,63,0.00,,,0.00,WUHU216HW,2013-02-04 07:43:00,
2013-02-04 02:48:00,25.6,14.3,29.41,WSW,248,1.1,2.9,62,0.00,,,0.00,WUHU216HW,2013-02-04 07:48:00,
2013-02-04 02:53:00,24.8,13.7,29.41,NE,45,5.4,5.4,62,0.00,,,0.00,WUHU216HW,2013-02-04 07:53:00,
2013-02-04 02:58:00,25.0,13.5,29.41,West,270,2.7,5.4,61,0.00,,,0.00,WUHU216HW,2013-02-04 07:58:00,
2013-02-04 03:03:00,25.2,14.3,29.41,NW,315,1.6,5.4,63,0.00,,,0.00,WUHU216HW,2013-02-04 08:03:00,
2013-02-04 03:08:00,25.2,14.0,29.41,North,0,0.0,4.0,62,0.00,,,0.00,WUHU216HW,2013-02-04 08:08:00,
2013-02-04 03:13:00,24.8,14.0,29.40,SE,135,0.4,1.6,63,0.00,,,0.00,WUHU216HW,2013-02-04 08:13:00,
2013-02-04 03:18:00,24.8,13.7,29.41,West,270,2.5,2.5,62,0.00,,,0.00,WUHU216HW,2013-02-04 08:18:00,
2013-02-04 03:23:00,24.7,14.1,29.41,WSW,248,1.1,2.5,64,0.00,,,0.00,WUHU216HW,2013-02-04 08:23:00,
2013-02-04 03:28:00,24.5,14.0,29.41,WNW,293,0.4,2.5,64,0.00,,,0.00,WUHU216HW,2013-02-04 08:28:00,
2013-02-04 03:33:00,24.1,13.3,29.41,North,0,4.0,4.0,63,0.00,,,0.00,WUHU216HW,2013-02-04 08:33:00,
2013-02-04 03:38:00,24.3,14.1,29.41,NW,315,2.9,4.0,65,0.00,,,0.00,WUHU216HW,2013-02-04 08:38:00,
2013-02-04 03:43:00,24.5,14.3,29.41,NW,315,1.3,4.0,65,0.00,,,0.00,WUHU216HW,2013-02-04 08:43:00,
2013-02-04 03:48:00,24.5,14.7,29.41,WNW,293,1.6,3.1,66,0.00,,,0.00,WUHU216HW,2013-02-04 08:48:00,
2013-02-04 03:53:00,24.1,13.7,29.41,NNE,23,0.7,2.7,64,0.00,,,0.00,WUHU216HW,2013-02-04 08:53:00,
2013-02-04 03:58:00,23.4,13.3,29.41,West,270,1.8,2.7,65,0.00,,,0.00,WUHU216HW,2013-02-04 08:58:00,
2013-02-04 04:03:00,23.4,13.7,29.40,SE,135,0.7,1.8,66,0.00,,,0.00,WUHU216HW,2013-02-04 09:03:00,
2013-02-04 04:08:00,22.9,13.1,29.40,ENE,68,1.6,3.6,66,0.00,,,0.00,WUHU216HW,2013-02-04 09:08:00,
2013-02-04 04:13:00,22.7,13.0,29.40,East,90,0.9,3.6,66,0.00,,,0.00,WUHU216HW,2013-02-04 09:13:00,
2013-02-04 04:18:00,22.5,12.8,29.40,East,90,0.0,1.6,66,0.00,,,0.00,WUHU216HW,2013-02-04 09:18:00,
2013-02-04 04:23:00,22.7,13.3,29.40,NNW,338,0.7,0.9,67,0.00,,,0.00,WUHU216HW,2013-02-04 09:23:00,
2013-02-04 04:28:00,22.7,13.0,29.41,NNW,338,0.0,1.6,66,0.00,,,0.00,WUHU216HW,2013-02-04 09:28:00,
2013-02-04 04:33:00,22.3,12.6,29.41,North,0,0.9,1.6,66,0.00,,,0.00,WUHU216HW,2013-02-04 09:33:00,
2013-02-04 04:38:00,22.1,12.4,29.41,NW,315,1.8,1.8,66,0.00,,,0.00,WUHU216HW,2013-02-04 09:38:00,
2013-02-04 04:43:00,22.7,13.3,29.41,NW,315,1.1,1.8,67,0.00,,,0.00,WUHU216HW,2013-02-04 09:43:00,
2013-02-04 04:48:00,22.9,13.9,29.41,WNW,293,0.2,1.8,68,0.00,,,0.00,WUHU216HW,2013-02-04 09:48:00,
2013-02-04 04:53:00,23.0,14.0,29.41,WSW,248,1.1,1.8,68,0.00,,,0.00,WUHU216HW,2013-02-04 09:53:00,
2013-02-04 04:58:00,23.0,14.4,29.41,SE,135,0.7,1.6,69,0.00,,,0.00,WUHU216HW,2013-02-04 09:58:00,
2013-02-04 05:03:00,22.9,14.2,29.41,SW,225,1.1,1.3,69,0.00,,,0.00,WUHU216HW,2013-02-04 10:03:00,
2013-02-04 05:08:00,22.7,13.7,29.41,SW,225,0.4,1.8,68,0.00,,,0.00,WUHU216HW,2013-02-04 10:08:00,
2013-02-04 05:13:00,22.5,13.9,29.41,ESE,113,0.4,1.8,69,0.00,,,0.00,WUHU216HW,2013-02-04 10:13:00,
2013-02-04 05:18:00,22.0,13.3,29.42,West,270,0.2,1.1,69,0.00,,,0.00,WUHU216HW,2013-02-04 10:18:00,
2013-02-04 05:23:00,21.4,12.8,29.43,West,270,0.0,1.1,69,0.00,,,0.00,WUHU216HW,2013-02-04 10:23:00,
2013-02-04 05:28:00,21.2,13.0,29.42,West,270,0.0,0.2,70,0.00,,,0.00,WUHU216HW,2013-02-04 10:28:00,
2013-02-04 05:33:00,21.4,13.4,29.42,WSW,248,1.6,1.8,71,0.00,,,0.00,WUHU216HW,2013-02-04 10:33:00,
2013-02-04 05:38:00,21.4,13.1,29.43,West,270,1.1,1.8,70,0.00,,,0.00,WUHU216HW,2013-02-04 10:38:00,
2013-02-04 05:43:00,21.2,13.2,29.43,WSW,248,1.3,2.5,71,0.00,,,0.00,WUHU216HW,2013-02-04 10:43:00,
2013-02-04 05:48:00,21.4,13.8,29.43,WSW,248,0.4,2.5,72,0.00,,,0.00,WUHU216HW,2013-02-04 10:48:00,
2013-02-04 05:53:00,21.4,13.8,29.44,SW,225,1.1,2.0,72,0.00,,,0.00,WUHU216HW,2013-02-04 10:53:00,
2013-02-04 05:58:00,21.2,13.2,29.43,East,90,1.1,1.1,71,0.00,,,0.00,WUHU216HW,2013-02-04 10:58:00,
2013-02-04 06:03:00,20.2,12.2,29.44,NE,45,2.5,4.0,71,0.00,,,0.00,WUHU216HW,2013-02-04 11:03:00,
2013-02-04 06:08:00,19.4,11.8,29.44,NE,45,0.0,4.0,72,0.00,,,0.00,WUHU216HW,2013-02-04 11:08:00,
2013-02-04 06:13:00,19.4,12.7,29.44,NNW,338,0.0,2.5,75,0.00,,,0.00,WUHU216HW,2013-02-04 11:13:00,
2013-02-04 06:18:00,19.8,12.8,29.45,WSW,248,0.2,0.7,74,0.00,,,0.00,WUHU216HW,2013-02-04 11:18:00,
2013-02-04 06:23:00,20.2,13.2,29.45,SE,135,0.4,1.1,74,0.00,,,0.00,WUHU216HW,2013-02-04 11:23:00,
2013-02-04 06:28:00,20.2,13.2,29.46,West,270,2.5,2.5,74,0.00,,,0.00,WUHU216HW,2013-02-04 11:28:00,
2013-02-04 06:33:00,20.0,13.2,29.46,West,270,1.3,2.5,75,0.00,,,0.00,WUHU216HW,2013-02-04 11:33:00,
2013-02-04 06:38:00,20.0,13.0,29.46,WSW,248,0.4,2.0,74,0.00,,,0.00,WUHU216HW,2013-02-04 11:38:00,
2013-02-04 06:43:00,20.2,13.2,29.46,SW,225,0.0,2.0,74,0.00,,,0.00,WUHU216HW,2013-02-04 11:43:00,
2013-02-04 06:48:00,20.3,13.3,29.46,SW,225,0.9,1.3,74,0.00,,,0.00,WUHU216HW,2013-02-04 11:48:00,
2013-02-04 06:53:00,20.5,13.5,29.48,WSW,248,0.4,1.3,74,0.00,,,0.00,WUHU216HW,2013-02-04 11:53:00,
2013-02-04 06:58:00,20.5,13.8,29.48,ESE,113,1.1,1.1,75,0.00,,,0.00,WUHU216HW,2013-02-04 11:58:00,
2013-02-04 07:03:00,19.8,12.4,29.48,ENE,68,1.6,2.2,73,0.00,,,0.00,WUHU216HW,2013-02-04 12:03:00,
2013-02-04 07:08:00,19.3,12.3,29.48,ENE,68,0.0,2.2,74,0.00,,,0.00,WUHU216HW,2013-02-04 12:08:00,
2013-02-04 07:13:00,19.6,13.5,29.48,ENE,68,0.0,1.6,77,0.00,,,0.00,WUHU216HW,2013-02-04 12:13:00,
2013-02-04 07:18:00,20.5,14.7,29.48,SE,135,0.7,0.7,78,0.00,,,0.00,WUHU216HW,2013-02-04 12:18:00,
2013-02-04 07:23:00,20.7,14.2,29.47,SE,135,0.0,0.7,76,0.00,,,0.00,WUHU216HW,2013-02-04 12:23:00,
2013-02-04 07:28:00,20.5,14.0,29.48,WSW,248,0.0,0.7,76,0.00,,,0.00,WUHU216HW,2013-02-04 12:28:00,
2013-02-04 07:33:00,20.3,14.2,29.48,WNW,293,2.0,2.5,77,0.00,,,0.00,WUHU216HW,2013-02-04 12:33:00,
2013-02-04 07:38:00,20.5,14.7,29.48,NW,315,0.4,2.5,78,0.00,,,0.00,WUHU216HW,2013-02-04 12:38:00,
2013-02-04 07:43:00,20.7,14.6,29.48,NW,315,0.0,2.0,77,0.00,,,0.00,WUHU216HW,2013-02-04 12:43:00,
2013-02-04 07:48:00,20.7,14.2,29.48,NW,315,0.0,0.7,76,0.00,,,0.00,WUHU216HW,2013-02-04 12:48:00,
2013-02-04 07:53:00,20.7,14.2,29.48,NW,315,0.4,0.9,76,0.00,,,0.00,WUHU216HW,2013-02-04 12:53:00,
2013-02-04 07:58:00,21.1,15.2,29.48,NW,315,0.0,0.9,78,0.00,,,0.00,WUHU216HW,2013-02-04 12:58:00,
2013-02-04 08:03:00,21.6,15.8,29.48,NW,315,0.0,0.4,78,0.00,,,0.00,WUHU216HW,2013-02-04 13:03:00,
2013-02-04 08:08:00,22.1,16.3,29.48,West,270,0.4,0.7,78,0.00,,,0.00,WUHU216HW,2013-02-04 13:08:00,
2013-02-04 08:13:00,22.5,16.4,29.48,West,270,0.0,0.7,77,0.00,,,0.00,WUHU216HW,2013-02-04 13:13:00,
2013-02-04 08:18:00,22.7,16.6,29.49,WSW,248,0.0,0.4,77,0.00,,,0.00,WUHU216HW,2013-02-04 13:18:00,
2013-02-04 08:23:00,23.4,17.3,29.50,SSW,203,0.4,0.9,77,0.00,,,0.00,WUHU216HW,2013-02-04 13:23:00,
2013-02-04 08:28:00,24.1,18.3,29.50,SSE,158,0.7,1.1,78,0.00,,,0.00,WUHU216HW,2013-02-04 13:28:00,
2013-02-04 08:33:00,25.0,18.8,29.50,ESE,113,0.7,1.1,77,0.00,,,0.00,WUHU216HW,2013-02-04 13:33:00,
2013-02-04 08:38:00,25.7,19.2,29.50,SSE,158,1.1,2.7,76,0.00,,,0.00,WUHU216HW,2013-02-04 13:38:00,
2013-02-04 08:43:00,26.5,19.5,29.50,SE,135,2.5,2.7,75,0.00,,,0.00,WUHU216HW,2013-02-04 13:43:00,
2013-02-04 08:48:00,27.2,20.3,29.51,SE,135,1.1,2.5,75,0.00,,,0.00,WUHU216HW,2013-02-04 13:48:00,
2013-02-04 08:53:00,27.9,21.0,29.50,SE,135,1.8,2.5,75,0.00,,,0.00,WUHU216HW,2013-02-04 13:53:00,
2013-02-04 08:58:00,28.1,20.9,29.51,SE,135,2.0,2.5,74,0.00,,,0.00,WUHU216HW,2013-02-04 13:58:00,
2013-02-04 09:03:00,28.8,21.3,29.50,ESE,113,2.5,3.4,73,0.00,,,0.00,WUHU216HW,2013-02-04 14:03:00,
2013-02-04 09:08:00,29.2,21.2,29.50,SE,135,3.1,3.4,72,0.00,,,0.00,WUHU216HW,2013-02-04 14:08:00,
2013-02-04 09:13:00,29.5,21.6,29.50,South,180,1.3,3.1,72,0.00,,,0.00,WUHU216HW,2013-02-04 14:13:00,
2013-02-04 09:18:00,29.9,21.6,29.50,SE,135,1.8,4.0,71,0.00,,,0.00,WUHU216HW,2013-02-04 14:18:00,
2013-02-04 09:23:00,30.6,22.3,29.50,SSE,158,2.9,4.0,71,0.00,,,0.00,WUHU216HW,2013-02-04 14:23:00,
2013-02-04 09:28:00,31.3,22.7,29.50,SE,135,2.5,4.0,70,0.00,,,0.00,WUHU216HW,2013-02-04 14:28:00,
2013-02-04 09:33:00,32.2,23.6,29.49,SSW,203,3.4,4.7,70,0.00,,,0.00,WUHU216HW,2013-02-04 14:33:00,
2013-02-04 09:38:00,32.8,24.0,29.49,SW,225,3.4,4.7,70,0.00,,,0.00,WUHU216HW,2013-02-04 14:38:00,
2013-02-04 09:43:00,32.9,23.1,29.49,SSW,203,4.9,6.3,67,0.00,,,0.00,WUHU216HW,2013-02-04 14:43:00,
2013-02-04 09:48:00,33.5,23.6,29.49,SW,225,3.6,6.3,67,0.00,,,0.00,WUHU216HW,2013-02-04 14:48:00,
2013-02-04 09:53:00,33.7,22.7,29.49,SSE,158,3.8,5.4,64,0.00,,,0.00,WUHU216HW,2013-02-04 14:53:00,
2013-02-04 09:58:00,33.7,22.3,29.49,SSW,203,5.1,6.9,63,0.00,,,0.00,WUHU216HW,2013-02-04 14:58:00,
2013-02-04 10:03:00,33.8,22.9,29.49,SSE,158,4.0,6.9,64,0.00,,,0.00,WUHU216HW,2013-02-04 15:03:00,
2013-02-04 10:08:00,34.2,23.2,29.49,SE,135,3.8,7.2,64,0.00,,,0.00,WUHU216HW,2013-02-04 15:08:00,
2013-02-04 10:13:00,34.6,22.9,29.48,SW,225,5.4,7.2,62,0.00,,,0.00,WUHU216HW,2013-02-04 15:13:00,
2013-02-04 10:18:00,34.9,23.6,29.48,SW,225,3.4,6.7,63,0.00,,,0.00,WUHU216HW,2013-02-04 15:18:00,
2013-02-04 10:23:00,35.1,21.4,29.48,SSW,203,6.9,7.4,57,0.00,,,0.00,WUHU216HW,2013-02-04 15:23:00,
2013-02-04 10:28:00,34.9,22.5,29.48,SW,225,5.4,7.4,60,0.00,,,0.00,WUHU216HW,2013-02-04 15:28:00,
2013-02-04 10:33:00,35.1,22.2,29.48,SSW,203,6.9,7.2,59,0.00,,,0.00,WUHU216HW,2013-02-04 15:33:00,
2013-02-04 10:38:00,34.9,20.8,29.49,WSW,248,7.8,9.8,56,0.00,,,0.00,WUHU216HW,2013-02-04 15:38:00,
2013-02-04 10:43:00,34.7,21.1,29.48,WSW,248,5.6,9.8,57,0.00,,,0.00,WUHU216HW,2013-02-04 15:43:00,
2013-02-04 10:48:00,34.9,20.8,29.48,SSW,203,7.4,9.2,56,0.00,,,0.00,WUHU216HW,2013-02-04 15:48:00,
2013-02-04 10:53:00,34.9,19.9,29.48,SSW,203,7.4,9.8,54,0.00,,,0.00,WUHU216HW,2013-02-04 15:53:00,
2013-02-04 10:58:00,34.6,19.5,29.48,WSW,248,6.9,9.8,54,0.00,,,0.00,WUHU216HW,2013-02-04 15:58:00,
2013-02-04 11:03:00,34.2,18.7,29.48,SSW,203,7.6,9.8,53,0.00,,,0.00,WUHU216HW,2013-02-04 16:03:00,
2013-02-04 11:08:00,34.4,18.6,29.48,SE,135,9.6,9.6,52,0.00,,,0.00,WUHU216HW,2013-02-04 16:08:00,
2013-02-04 11:13:00,34.2,18.4,29.48,SW,225,6.9,9.6,52,0.00,,,0.00,WUHU216HW,2013-02-04 16:13:00,
2013-02-04 11:18:00,34.2,19.2,29.48,SW,225,6.7,9.6,54,0.00,,,0.00,WUHU216HW,2013-02-04 16:18:00,
2013-02-04 11:23:00,34.6,19.1,29.48,SSW,203,6.9,10.1,53,0.00,,,0.00,WUHU216HW,2013-02-04 16:23:00,
2013-02-04 11:28:00,34.7,20.2,29.47,WSW,248,4.5,10.1,55,0.00,,,0.00,WUHU216HW,2013-02-04 16:28:00,
2013-02-04 11:33:00,35.1,21.4,29.47,SSE,158,4.3,8.3,57,0.00,,,0.00,WUHU216HW,2013-02-04 16:33:00,
2013-02-04 11:38:00,35.3,20.7,29.46,SSW,203,6.5,8.3,55,0.00,,,0.00,WUHU216HW,2013-02-04 16:38:00,
2013-02-04 11:43:00,35.5,21.3,29.46,SSW,203,6.9,8.3,56,0.00,,,0.00,WUHU216HW,2013-02-04 16:43:00,
2013-02-04 11:48:00,35.6,20.6,29.46,SSE,158,6.3,7.4,54,0.00,,,0.00,WUHU216HW,2013-02-04 16:48:00,
2013-02-04 11:53:00,35.6,21.1,29.46,SW,225,6.3,8.5,55,0.00,,,0.00,WUHU216HW,2013-02-04 16:53:00,
2013-02-04 11:58:00,35.8,21.3,29.46,SSW,203,4.5,9.2,55,0.00,,,0.00,WUHU216HW,2013-02-04 16:58:00,
2013-02-04 12:03:00,35.8,20.8,29.46,SE,135,4.7,9.2,54,0.00,,,0.00,WUHU216HW,2013-02-04 17:03:00,
2013-02-04 12:08:00,35.8,19.9,29.45,SW,225,7.8,10.5,52,0.00,,,0.00,WUHU216HW,2013-02-04 17:08:00,
2013-02-04 12:13:00,35.8,20.3,29.45,SSW,203,6.9,10.5,53,0.00,,,0.00,WUHU216HW,2013-02-04 17:13:00,
2013-02-04 12:18:00,36.2,21.2,29.45,South,180,6.3,8.5,54,0.00,,,0.00,WUHU216HW,2013-02-04 17:18:00,
2013-02-04 12:23:00,36.2,21.2,29.45,SW,225,6.9,7.2,54,0.00,,,0.00,WUHU216HW,2013-02-04 17:23:00,
2013-02-04 12:28:00,36.4,20.4,29.44,SW,225,10.7,11.4,52,0.00,,,0.00,WUHU216HW,2013-02-04 17:28:00,
2013-02-04 12:32:00,36.0,19.3,29.44,SSW,203,8.5,11.4,50,0.00,,,0.00,WUHU216HW,2013-02-04 17:32:00,
2013-02-04 12:38:00,36.2,20.3,29.44,SW,225,7.6,11.6,52,0.00,,,0.00,WUHU216HW,2013-02-04 17:38:00,
2013-02-04 12:42:00,36.5,20.2,29.43,SSW,203,8.1,11.6,51,0.00,,,0.00,WUHU216HW,2013-02-04 17:42:00,
2013-02-04 12:48:00,36.9,20.1,29.43,SW,225,4.3,11.0,50,0.00,,,0.00,WUHU216HW,2013-02-04 17:48:00,
2013-02-04 12:53:00,37.1,19.7,29.43,SSW,203,10.3,11.0,49,0.00,,,0.00,WUHU216HW,2013-02-04 17:53:00,
2013-02-04 12:58:00,37.1,19.2,29.42,SSW,203,11.6,11.9,48,0.00,,,0.00,WUHU216HW,2013-02-04 17:58:00,
2013-02-04 13:03:00,36.7,19.9,29.42,SW,225,6.7,11.9,50,0.00,,,0.00,WUHU216HW,2013-02-04 18:03:00,
2013-02-04 13:08:00,37.3,20.3,29.42,SW,225,7.8,11.6,50,0.00,,,0.00,WUHU216HW,2013-02-04 18:08:00,
2013-02-04 13:13:00,37.3,20.3,29.42,South,180,10.3,10.3,50,0.00,,,0.00,WUHU216HW,2013-02-04 18:13:00,
2013-02-04 13:18:00,36.7,19.9,29.41,SW,225,6.3,11.6,50,0.00,,,0.00,WUHU216HW,2013-02-04 18:18:00,
2013-02-04 13:23:00,36.7,19.9,29.41,SSW,203,7.6,11.6,50,0.00,,,0.00,WUHU216HW,2013-02-04 18:23:00,
2013-02-04 13:28:00,36.7,19.9,29.40,SW,225,5.6,10.5,50,0.00,,,0.00,WUHU216HW,2013-02-04 18:28:00,
2013-02-04 13:33:00,36.7,20.4,29.40,SSW,203,8.3,10.5,51,0.00,,,0.00,WUHU216HW,2013-02-04 18:33:00,
2013-02-04 13:38:00,36.7,19.9,29.40,South,180,6.9,10.5,50,0.00,,,0.00,WUHU216HW,2013-02-04 18:38:00,
2013-02-04 13:43:00,36.7,20.4,29.40,SW,225,8.5,11.4,51,0.00,,,0.00,WUHU216HW,2013-02-04 18:43:00,
2013-02-04 13:48:00,36.7,20.4,29.40,SSW,203,6.3,12.3,51,0.00,,,0.00,WUHU216HW,2013-02-04 18:48:00,
2013-02-04 13:53:00,36.7,19.9,29.40,SW,225,11.2,12.3,50,0.00,,,0.00,WUHU216HW,2013-02-04 18:53:00,
2013-02-04 13:58:00,36.7,20.4,29.40,SW,225,9.2,12.3,51,0.00,,,0.00,WUHU216HW,2013-02-04 18:58:00,
2013-02-04 14:03:00,36.9,21.3,29.39,SSW,203,6.9,11.2,53,0.00,,,0.00,WUHU216HW,2013-02-04 19:03:00,
2013-02-04 14:08:00,37.1,21.5,29.39,South,180,6.0,8.5,53,0.00,,,0.00,WUHU216HW,2013-02-04 19:08:00,
2013-02-04 14:13:00,37.4,21.8,29.39,SW,225,6.3,7.6,53,0.00,,,0.00,WUHU216HW,2013-02-04 19:13:00,
2013-02-04 14:18:00,37.8,22.6,29.39,SW,225,5.4,6.9,54,0.00,,,0.00,WUHU216HW,2013-02-04 19:18:00,
2013-02-04 14:23:00,38.0,22.8,29.39,South,180,2.5,6.3,54,0.00,,,0.00,WUHU216HW,2013-02-04 19:23:00,
2013-02-04 14:28:00,37.8,21.7,29.39,SW,225,6.9,6.9,52,0.00,,,0.00,WUHU216HW,2013-02-04 19:28:00,
2013-02-04 14:33:00,37.6,22.0,29.39,SW,225,7.6,8.3,53,0.00,,,0.00,WUHU216HW,2013-02-04 19:33:00,
2013-02-04 14:38:00,37.6,22.0,29.39,SSE,158,4.0,8.3,53,0.00,,,0.00,WUHU216HW,2013-02-04 19:38:00,
2013-02-04 14:43:00,37.8,21.7,29.38,SSW,203,6.7,8.7,52,0.00,,,0.00,WUHU216HW,2013-02-04 19:43:00,
2013-02-04 14:48:00,37.8,21.7,29.38,SW,225,5.1,8.7,52,0.00,,,0.00,WUHU216HW,2013-02-04 19:48:00,
2013-02-04 14:53:00,37.6,21.2,29.38,SSW,203,8.5,9.6,51,0.00,,,0.00,WUHU216HW,2013-02-04 19:53:00,
2013-02-04 14:58:00,37.4,21.4,29.38,WSW,248,10.3,10.7,52,0.00,,,0.00,WUHU216HW,2013-02-04 19:58:00,
2013-02-04 15:03:00,37.3,21.3,29.38,SSW,203,5.1,10.7,52,0.00,,,0.00,WUHU216HW,2013-02-04 20:03:00,
2013-02-04 15:08:00,37.4,21.4,29.37,WSW,248,6.7,11.4,52,0.00,,,0.00,WUHU216HW,2013-02-04 20:08:00,
2013-02-04 15:13:00,37.3,21.7,29.37,SSW,203,6.9,11.4,53,0.00,,,0.00,WUHU216HW,2013-02-04 20:13:00,
2013-02-04 15:18:00,37.4,21.4,29.37,SW,225,6.3,9.8,52,0.00,,,0.00,WUHU216HW,2013-02-04 20:18:00,
2013-02-04 15:23:00,37.3,21.3,29.37,SSW,203,4.5,10.3,52,0.00,,,0.00,WUHU216HW,2013-02-04 20:23:00,
2013-02-04 15:28:00,37.3,21.7,29.37,SW,225,7.4,10.3,53,0.00,,,0.00,WUHU216HW,2013-02-04 20:28:00,
2013-02-04 15:33:00,37.3,21.7,29.37,SSW,203,7.2,9.2,53,0.00,,,0.00,WUHU216HW,2013-02-04 20:33:00,
2013-02-04 15:38:00,37.3,21.7,29.37,SW,225,8.9,9.8,53,0.00,,,0.00,WUHU216HW,2013-02-04 20:38:00,
2013-02-04 15:43:00,37.1,21.5,29.36,WSW,248,8.5,9.8,53,0.00,,,0.00,WUHU216HW,2013-02-04 20:43:00,
2013-02-04 15:48:00,37.1,22.0,29.37,SW,225,8.3,9.2,54,0.00,,,0.00,WUHU216HW,2013-02-04 20:48:00,
2013-02-04 15:53:00,37.1,21.5,29.37,SSW,203,7.4,11.0,53,0.00,,,0.00,WUHU216HW,2013-02-04 20:53:00,
2013-02-04 15:58:00,37.1,21.5,29.37,SW,225,10.1,11.0,53,0.00,,,0.00,WUHU216HW,2013-02-04 20:58:00,
2013-02-04 16:03:00,37.3,22.1,29.36,WSW,248,6.3,10.1,54,0.00,,,0.00,WUHU216HW,2013-02-04 21:03:00,
2013-02-04 16:08:00,37.1,22.0,29.36,SW,225,7.2,11.9,54,0.00,,,0.00,WUHU216HW,2013-02-04 21:08:00,
2013-02-04 16:13:00,37.1,22.0,29.36,SW,225,6.9,11.9,54,0.00,,,0.00,WUHU216HW,2013-02-04 21:13:00,
2013-02-04 16:18:00,37.1,22.0,29.36,SW,225,3.4,9.4,54,0.00,,,0.00,WUHU216HW,2013-02-04 21:18:00,
2013-02-04 16:23:00,37.3,22.1,29.35,SW,225,3.4,6.9,54,0.00,,,0.00,WUHU216HW,2013-02-04 21:23:00,
2013-02-04 16:28:00,37.3,22.5,29.35,WSW,248,4.7,6.5,55,0.00,,,0.00,WUHU216HW,2013-02-04 21:28:00,
2013-02-04 16:33:00,37.4,23.1,29.35,SW,225,4.9,5.8,56,0.00,,,0.00,WUHU216HW,2013-02-04 21:33:00,
2013-02-04 16:38:00,37.4,23.1,29.35,SW,225,3.1,5.8,56,0.00,,,0.00,WUHU216HW,2013-02-04 21:38:00,
2013-02-04 16:43:00,37.6,23.3,29.35,SW,225,4.7,4.9,56,0.00,,,0.00,WUHU216HW,2013-02-04 21:43:00,
2013-02-04 16:48:00,37.8,23.4,29.35,WSW,248,4.0,4.9,56,0.00,,,0.00,WUHU216HW,2013-02-04 21:48:00,
2013-02-04 16:53:00,38.0,22.8,29.35,SW,225,4.9,7.4,54,0.00,,,0.00,WUHU216HW,2013-02-04 21:53:00,
2013-02-04 16:58:00,38.0,23.1,29.35,WSW,248,6.7,7.4,55,0.00,,,0.00,WUHU216HW,2013-02-04 21:58:00,
2013-02-04 17:03:00,38.0,23.1,29.35,SW,225,3.6,8.3,55,0.00,,,0.00,WUHU216HW,2013-02-04 22:03:00,
2013-02-04 17:08:00,38.0,22.8,29.35,WSW,248,4.7,9.2,54,0.00,,,0.00,WUHU216HW,2013-02-04 22:08:00,
2013-02-04 17:13:00,38.0,23.1,29.35,SW,225,4.9,9.2,55,0.00,,,0.00,WUHU216HW,2013-02-04 22:13:00,
2013-02-04 17:18:00,37.8,22.6,29.35,WSW,248,8.9,8.9,54,0.00,,,0.00,WUHU216HW,2013-02-04 22:18:00,
2013-02-04 17:23:00,37.8,23.1,29.34,SSW,203,7.2,8.9,55,0.00,,,0.00,WUHU216HW,2013-02-04 22:23:00,
2013-02-04 17:28:00,37.6,22.9,29.34,SW,225,4.5,8.9,55,0.00,,,0.00,WUHU216HW,2013-02-04 22:28:00,
2013-02-04 17:33:00,37.3,23.0,29.34,SW,225,6.0,7.2,56,0.00,,,0.00,WUHU216HW,2013-02-04 22:33:00,
2013-02-04 17:38:00,37.3,22.5,29.35,WSW,248,4.7,6.0,55,0.00,,,0.00,WUHU216HW,2013-02-04 22:38:00,
2013-02-04 17:43:00,37.3,23.0,29.35,SW,225,4.3,6.5,56,0.00,,,0.00,WUHU216HW,2013-02-04 22:43:00,
2013-02-04 17:48:00,37.1,22.8,29.35,SW,225,4.5,6.9,56,0.00,,,0.00,WUHU216HW,2013-02-04 22:48:00,
2013-02-04 17:53:00,37.1,22.8,29.35,SSW,203,4.7,6.9,56,0.00,,,0.00,WUHU216HW,2013-02-04 22:53:00,
2013-02-04 17:58:00,36.7,22.5,29.35,SW,225,8.9,8.9,56,0.00,,,0.00,WUHU216HW,2013-02-04 22:58:00,
2013-02-04 18:03:00,36.5,22.8,29.35,SW,225,4.5,8.9,57,0.00,,,0.00,WUHU216HW,2013-02-04 23:03:00,
2013-02-04 18:08:00,36.4,22.6,29.35,WSW,248,5.4,8.9,57,0.00,,,0.00,WUHU216HW,2013-02-04 23:08:00,
2013-02-04 18:13:00,36.4,22.6,29.35,SW,225,5.6,7.2,57,0.00,,,0.00,WUHU216HW,2013-02-04 23:13:00,
2013-02-04 18:18:00,36.4,22.6,29.35,WSW,248,6.7,7.2,57,0.00,,,0.00,WUHU216HW,2013-02-04 23:18:00,
2013-02-04 18:23:00,36.4,22.6,29.35,WSW,248,8.5,8.5,57,0.00,,,0.00,WUHU216HW,2013-02-04 23:23:00,
2013-02-04 18:28:00,36.4,23.1,29.36,WSW,248,6.9,8.5,58,0.00,,,0.00,WUHU216HW,2013-02-04 23:28:00,
2013-02-04 18:33:00,36.2,22.9,29.36,WSW,248,6.3,9.6,58,0.00,,,0.00,WUHU216HW,2013-02-04 23:33:00,
2013-02-04 18:38:00,36.2,22.4,29.36,SW,225,5.8,9.6,57,0.00,,,0.00,WUHU216HW,2013-02-04 23:38:00,
2013-02-04 18:43:00,36.2,22.4,29.36,SSE,158,5.4,7.4,57,0.00,,,0.00,WUHU216HW,2013-02-04 23:43:00,
2013-02-04 18:48:00,36.2,22.4,29.36,SSW,203,4.7,7.4,57,0.00,,,0.00,WUHU216HW,2013-02-04 23:48:00,
2013-02-04 18:53:00,36.2,22.9,29.36,SW,225,7.8,7.8,58,0.00,,,0.00,WUHU216HW,2013-02-04 23:53:00,
2013-02-04 18:58:00,36.2,22.9,29.36,South,180,4.5,7.8,58,0.00,,,0.00,WUHU216HW,2013-02-04 23:58:00,
2013-02-04 19:03:00,36.2,23.3,29.36,SSW,203,5.6,7.8,59,0.00,,,0.00,WUHU216HW,2013-02-05 00:03:00,
2013-02-04 19:08:00,36.0,22.7,29.36,SW,225,6.0,6.5,58,0.00,,,0.00,WUHU216HW,2013-02-05 00:08:00,
2013-02-04 19:13:00,36.0,23.6,29.36,WSW,248,5.1,7.4,60,0.00,,,0.00,WUHU216HW,2013-02-05 00:13:00,
2013-02-04 19:18:00,35.8,23.0,29.36,SSW,203,5.1,7.6,59,0.00,,,0.00,WUHU216HW,2013-02-05 00:18:00,
2013-02-04 19:23:00,35.6,23.2,29.35,SSW,203,5.6,7.6,60,0.00,,,0.00,WUHU216HW,2013-02-05 00:23:00,
2013-02-04 19:28:00,35.5,23.0,29.35,SW,225,6.0,6.7,60,0.00,,,0.00,WUHU216HW,2013-02-05 00:28:00,
2013-02-04 19:33:00,35.3,22.9,29.35,South,180,4.0,6.0,60,0.00,,,0.00,WUHU216HW,2013-02-05 00:33:00,
2013-02-04 19:38:00,34.9,22.9,29.35,SSW,203,4.5,6.0,61,0.00,,,0.00,WUHU216HW,2013-02-05 00:38:00,
2013-02-04 19:43:00,34.7,22.7,29.35,SW,225,3.4,4.9,61,0.00,,,0.00,WUHU216HW,2013-02-05 00:43:00,
2013-02-04 19:48:00,34.6,22.9,29.36,South,180,4.3,4.9,62,0.00,,,0.00,WUHU216HW,2013-02-05 00:48:00,
2013-02-04 19:53:00,34.4,22.7,29.36,SW,225,2.9,4.5,62,0.00,,,0.00,WUHU216HW,2013-02-05 00:53:00,
2013-02-04 19:58:00,34.2,22.5,29.36,SSW,203,3.8,4.5,62,0.00,,,0.00,WUHU216HW,2013-02-05 00:58:00,
2013-02-04 20:03:00,34.2,22.5,29.35,SW,225,3.6,4.0,62,0.00,,,0.00,WUHU216HW,2013-02-05 01:03:00,
2013-02-04 20:08:00,33.8,22.1,29.35,SE,135,1.6,4.0,62,0.00,,,0.00,WUHU216HW,2013-02-05 01:08:00,
2013-02-04 20:13:00,33.5,21.8,29.35,SE,135,2.5,3.6,62,0.00,,,0.00,WUHU216HW,2013-02-05 01:13:00,
2013-02-04 20:18:00,33.1,21.9,29.34,SW,225,1.1,3.4,63,0.00,,,0.00,WUHU216HW,2013-02-05 01:18:00,
2013-02-04 20:23:00,32.8,21.5,29.34,SE,135,0.9,2.5,63,0.00,,,0.00,WUHU216HW,2013-02-05 01:23:00,
2013-02-04 20:28:00,32.8,21.9,29.34,SE,135,0.7,2.0,64,0.00,,,0.00,WUHU216HW,2013-02-05 01:28:00,
2013-02-04 20:33:00,32.4,21.6,29.34,West,270,1.1,1.1,64,0.00,,,0.00,WUHU216HW,2013-02-05 01:33:00,
2013-02-04 20:38:00,32.0,21.2,29.34,SW,225,0.0,1.3,64,0.00,,,0.00,WUHU216HW,2013-02-05 01:38:00,
2013-02-04 20:43:00,31.9,21.4,29.34,SE,135,0.0,1.3,65,0.00,,,0.00,WUHU216HW,2013-02-05 01:43:00,
2013-02-04 20:48:00,31.7,21.2,29.34,SE,135,1.1,1.6,65,0.00,,,0.00,WUHU216HW,2013-02-05 01:48:00,
2013-02-04 20:53:00,31.7,21.6,29.34,SSE,158,1.8,3.4,66,0.00,,,0.00,WUHU216HW,2013-02-05 01:53:00,
2013-02-04 20:58:00,31.9,21.8,29.34,WSW,248,0.0,3.4,66,0.00,,,0.00,WUHU216HW,2013-02-05 01:58:00,
2013-02-04 21:03:00,31.7,21.6,29.35,SW,225,0.0,1.8,66,0.00,,,0.00,WUHU216HW,2013-02-05 02:03:00,
2013-02-04 21:09:00,31.9,21.8,29.35,SE,135,0.0,0.7,66,0.00,,,0.00,WUHU216HW,2013-02-05 02:09:00,
2013-02-04 21:14:00,32.0,22.3,29.34,ESE,113,2.7,2.7,67,0.00,,,0.00,WUHU216HW,2013-02-05 02:14:00,
2013-02-04 21:19:00,32.2,22.5,29.35,ESE,113,0.7,2.7,67,0.00,,,0.00,WUHU216HW,2013-02-05 02:19:00,
2013-02-04 21:24:00,32.4,22.7,29.34,SE,135,1.1,2.7,67,0.00,,,0.00,WUHU216HW,2013-02-05 02:24:00,
2013-02-04 21:29:00,32.4,22.7,29.35,ESE,113,1.1,1.8,67,0.00,,,0.00,WUHU216HW,2013-02-05 02:29:00,
2013-02-04 21:34:00,32.6,22.8,29.34,ESE,113,2.0,2.0,67,0.00,,,0.00,WUHU216HW,2013-02-05 02:34:00,
2013-02-04 21:39:00,32.6,22.8,29.34,SE,135,1.1,2.2,67,0.00,,,0.00,WUHU216HW,2013-02-05 02:39:00,
2013-02-04 21:44:00,32.6,22.8,29.33,SE,135,2.2,2.2,67,0.00,,,0.00,WUHU216HW,2013-02-05 02:44:00,
2013-02-04 21:49:00,32.6,23.1,29.33,SSE,158,1.1,2.5,68,0.00,,,0.00,WUHU216HW,2013-02-05 02:49:00,
2013-02-04 21:54:00,32.6,23.1,29.33,SE,135,1.3,2.5,68,0.00,,,0.00,WUHU216HW,2013-02-05 02:54:00,
2013-02-04 21:59:00,32.4,23.1,29.32,SE,135,1.8,2.2,68,0.00,,,0.00,WUHU216HW,2013-02-05 02:59:00,
2013-02-04 22:04:00,32.2,22.9,29.33,SSE,158,0.4,1.8,68,0.00,,,0.00,WUHU216HW,2013-02-05 03:04:00,
2013-02-04 22:09:00,32.0,22.7,29.33,SSE,158,0.2,1.8,68,0.00,,,0.00,WUHU216HW,2013-02-05 03:09:00,
2013-02-04 22:14:00,31.9,22.1,29.33,ESE,113,2.2,2.5,67,0.00,,,0.00,WUHU216HW,2013-02-05 03:14:00,
2013-02-04 22:19:00,31.9,22.5,29.33,SE,135,1.6,2.5,68,0.00,,,0.00,WUHU216HW,2013-02-05 03:19:00,
2013-02-04 22:24:00,32.0,22.7,29.33,SE,135,1.1,2.5,68,0.00,,,0.00,WUHU216HW,2013-02-05 03:24:00,
2013-02-04 22:28:00,32.2,23.2,29.33,SE,135,0.7,2.2,69,0.00,,,0.00,WUHU216HW,2013-02-05 03:28:00,
2013-02-04 22:33:00,32.4,23.4,29.33,SE,135,2.5,2.5,69,0.00,,,0.00,WUHU216HW,2013-02-05 03:33:00,
2013-02-04 22:38:00,32.4,23.4,29.32,SSE,158,2.7,3.4,69,0.00,,,0.00,WUHU216HW,2013-02-05 03:38:00,
2013-02-04 22:43:00,32.6,23.5,29.33,SSE,158,1.8,3.4,69,0.00,,,0.00,WUHU216HW,2013-02-05 03:43:00,
2013-02-04 22:48:00,32.6,23.5,29.32,SSW,203,2.5,4.9,69,0.00,,,0.00,WUHU216HW,2013-02-05 03:48:00,
2013-02-04 22:53:00,32.8,23.7,29.32,SSE,158,4.3,5.8,69,0.00,,,0.00,WUHU216HW,2013-02-05 03:53:00,
2013-02-04 22:58:00,33.1,24.0,29.32,SW,225,4.7,5.8,69,0.00,,,0.00,WUHU216HW,2013-02-05 03:58:00,
2013-02-04 23:03:00,33.3,24.2,29.32,SSW,203,1.6,5.1,69,0.00,,,0.00,WUHU216HW,2013-02-05 04:03:00,
2013-02-04 23:08:00,33.5,24.3,29.32,SW,225,4.0,5.8,69,0.00,,,0.00,WUHU216HW,2013-02-05 04:08:00,
2013-02-04 23:13:00,34.2,25.4,29.32,SSW,203,4.7,7.6,70,0.00,,,0.00,WUHU216HW,2013-02-05 04:13:00,
2013-02-04 23:18:00,34.7,25.6,29.32,SSW,203,6.3,9.8,69,0.00,,,0.00,WUHU216HW,2013-02-05 04:18:00,
2013-02-04 23:23:00,34.9,25.7,29.32,SSW,203,4.0,9.8,69,0.00,,,0.00,WUHU216HW,2013-02-05 04:23:00,
2013-02-04 23:28:00,35.1,26.7,29.31,SW,225,7.6,8.3,71,0.00,,,0.00,WUHU216HW,2013-02-05 04:28:00,
2013-02-04 23:33:00,35.3,27.5,29.31,SW,225,7.6,8.5,73,0.00,,,0.00,WUHU216HW,2013-02-05 04:33:00,
2013-02-04 23:38:00,35.6,28.4,29.31,WSW,248,6.0,10.3,75,0.00,,,0.00,WUHU216HW,2013-02-05 04:38:00,
2013-02-04 23:43:00,35.8,28.6,29.31,WSW,248,8.5,11.9,75,0.00,,,0.00,WUHU216HW,2013-02-05 04:43:00,
2013-02-04 23:48:00,35.6,28.1,29.31,SSW,203,6.5,11.9,74,0.00,,,0.00,WUHU216HW,2013-02-05 04:48:00,
2013-02-04 23:53:00,35.6,28.1,29.31,SW,225,6.3,8.5,74,0.00,,,0.00,WUHU216HW,2013-02-05 04:53:00,
2013-02-04 23:58:00,35.6,28.1,29.31,SW,225,3.4,7.8,74,0.00,,,0.00,WUHU216HW,2013-02-05 04:58:00,